ADDS METAR Data INFO
IDs: Format: Raw Decoded Include TAF

Data at: 0026 UTC 17 Dec 2017

KTRK 162345Z 02016G24KT 10SM FEW040 M02/M11 A3004
KTRK 162245Z 02013G23KT 10SM SKC M01/M11 A3004
KTRK 162145Z 36015G21KT 10SM FEW030 M01/M09 A3001
KTRK 162045Z 02018G23 10SM FEW032 M01/M09 A3004
KTRK 161945Z 03011G15KT 10SM BKN032BKN038 M01/M08 A3005
KTRK 161900Z 03011G15KT 10SM SCT029 M01/M09 A3005
KTRK 161845Z 01011G17KT 10SM SCT029 M01/M07 A3007
KTRK 161700Z COR 01012G15KT 10SM SCT029 M02/M08 A3006
KTRK 161545Z 02012G21KT 10SM FEW045 M03/M07 A3001
KTRK 161445Z 36012G18KT 10SM BKN022FKN029BKN038 M02/M05 A3001
KTRK 161335Z AUTO 01008KT 10SM OVC018 M01/M03 A3001 RMK AO2
KTRK 161315Z AUTO 03009KT 10SM BKN018 OVC023 00/M02 A3002 RMK AO2
KTRK 161255Z AUTO 01009KT 10SM BKN020 OVC030 00/M02 A3001 RMK AO2
KTRK 161235Z AUTO 01007KT 10SM OVC020 00/M02 A3001 RMK AO2
KTRK 161215Z AUTO 03004KT 10SM BKN018 OVC023 00/M01 A3001 RMK AO2
KTRK 161155Z AUTO 05005KT 10SM BKN019 OVC026 00/M01 A3002 RMK AO2
KTRK 161135Z AUTO 04008KT 10SM SCT010 BKN019 OVC026 00/M01 A3001 RMK AO2
KTRK 161115Z AUTO 00000KT 10SM SCT013 OVC017 00/M01 A3002 RMK AO2
KTRK 161055Z AUTO 00000KT 10SM SCT010 BKN017 OVC023 00/00 A3003 RMK AO2
KTRK 161035Z AUTO 00000KT 10SM BKN017 OVC025 00/00 A3003 RMK AO2
KTRK 161015Z AUTO 00000KT 10SM BKN019 BKN029 OVC034 00/00 A3003 RMK AO2
KTRK 160955Z AUTO 02003KT 7SM -SN SCT003 BKN023 OVC031 00/00 A3003 RMK AO2
KTRK 160935Z AUTO 02004KT 2 1/2SM -SN BKN003 BKN009 OVC016 00/00 A3003 RMK AO2
KTRK 160915Z AUTO 36009KT 7SM -SN SCT010 BKN025 OVC035 00/M01 A3003 RMK AO2
KTRK 160855Z AUTO 35009KT 10SM -SN SCT027 BKN044 OVC050 01/M02 A3003 RMK AO2
KTRK 160835Z AUTO 36004KT 10SM OVC050 01/M02 A3002 RMK AO2
KTRK 160815Z AUTO 09006KT 10SM SCT020 SCT032 OVC050 02/M02 A3002 RMK AO2
KTRK 160755Z AUTO 34005G17KT 7SM -SN SCT024 BKN037 OVC075 03/M05 A3003 RMK AO2
KTRK 160735Z AUTO 00000KT 10SM SCT060 BKN070 OVC080 01/M06 A3001 RMK AO2
KTRK 160715Z AUTO 18004KT 10SM SCT070 OVC090 01/M06 A3003 RMK AO2
KTRK 160655Z AUTO 00000KT 10SM OVC100 01/M07 A3004 RMK AO2
KTRK 160635Z AUTO 00000KT 10SM OVC100 01/M07 A3004 RMK AO2
KTRK 160615Z AUTO 00000KT 10SM BKN120 03/M09 A3005 RMK AO2
KTRK 160555Z AUTO 16005KT 10SM BKN110 02/M07 A3006 RMK AO2
KTRK 160535Z AUTO 06003KT 10SM BKN110 05/M10 A3007 RMK AO2
KTRK 160515Z AUTO 32007KT 10SM SCT120 03/M08 A3007 RMK AO2
KTRK 160455Z AUTO 00000KT 10SM CLR 02/M07 A3005 RMK AO2
KTRK 160435Z AUTO 15003KT 10SM SCT120 02/M07 A3006 RMK AO2
KTRK 160415Z AUTO 00000KT 10SM SCT120 03/M08 A3007 RMK AO2
KTRK 160355Z AUTO 31004KT 10SM CLR 04/M08 A3008 RMK AO2
KTRK 160335Z AUTO 33004KT 10SM SCT120 03/M07 A3007 RMK AO2
KTRK 160315Z AUTO 00000KT 10SM CLR 05/M08 A3008 RMK AO2
KTRK 160255Z AUTO 27003KT 10SM SCT120 03/M07 A3009 RMK AO2
KTRK 160235Z AUTO 10003KT 10SM OVC120 03/M06 A3011 RMK AO2
KTRK 160215Z AUTO 00000KT 10SM OVC110 04/M08 A3011 RMK AO2
KTRK 160155Z AUTO 00000KT 10SM OVC110 04/M08 A3013 RMK AO2
KTRK 160135Z AUTO 28003KT 10SM SCT120 06/M09 A3013 RMK AO2
KTRK 160115Z AUTO 36003KT 10SM CLR 07/M10 A3013 RMK AO2
KTRK 160045Z 00000KT 10SM ` OVC180 08/M11 A3014
KTRK 152350Z 00000KT 10SM ` OVC180 11/M11 A3013
KTRK 152150Z 00000KT 10SM ` FEW140OVC200 13/M11 A3016
KTRK 152045Z 00000KT 10SM FEW110BKN200OVC240 04/M03 A3019
KTRK 151945Z 00000KT 10SM FEW180SCT200 03/M04 A3025
KTRK 151845Z 00000KT 10SM FEW100SCT180 01/M03 A3029
KTRK 151745Z 00000KT 10SM OVC018 M04/M06 A3031
KTRK 151645Z 00000KT 10SM OVC018 M06/M07 A3033
KTRK 151550Z 00000KT 10SM FEW015BKN022 M08/M10 A3032
KTRK 151335Z AUTO 00000KT 10SM CLR M08/M10 A3035 RMK AO2
KTRK 151315Z AUTO 00000KT 10SM CLR M08/M10 A3034 RMK AO2
KTRK 151255Z AUTO 00000KT 10SM CLR M09/M10 A3034 RMK AO2
KTRK 151235Z AUTO 00000KT 10SM CLR M10/M11 A3034 RMK AO2